sensor_id;sensor_type;location;lat;lon;timestamp;pressure;altitude;pressure_sealevel;temperature;humidity
23446;BME280;11895;48.738;9.320;2023-01-30T00:01:19;99505.28;;;-0.27;100.00
23446;BME280;11895;48.738;9.320;2023-01-30T00:03:48;99497.41;;;-0.18;100.00
23446;BME280;11895;48.738;9.320;2023-01-30T00:06:16;99498.34;;;-0.14;100.00
23446;BME280;11895;48.738;9.320;2023-01-30T00:08:45;99502.75;;;-0.10;100.00
23446;BME280;11895;48.738;9.320;2023-01-30T00:11:15;99493.94;;;-0.12;100.00
23446;BME280;11895;48.738;9.320;2023-01-30T00:13:47;99490.34;;;-0.17;100.00
23446;BME280;11895;48.738;9.320;2023-01-30T00:16:17;99484.19;;;-0.16;100.00
23446;BME280;11895;48.738;9.320;2023-01-30T00:18:45;99477.66;;;-0.58;100.00
23446;BME280;11895;48.738;9.320;2023-01-30T00:21:13;99466.34;;;-0.39;100.00
23446;BME280;11895;48.738;9.320;2023-01-30T00:23:42;99459.25;;;-0.46;100.00
23446;BME280;11895;48.738;9.320;2023-01-30T00:26:10;99464.66;;;-0.31;100.00
23446;BME280;11895;48.738;9.320;2023-01-30T00:28:39;99443.50;;;-0.31;100.00
23446;BME280;11895;48.738;9.320;2023-01-30T00:31:08;99453.22;;;-0.27;100.00
23446;BME280;11895;48.738;9.320;2023-01-30T00:33:37;99455.00;;;-0.27;100.00
23446;BME280;11895;48.738;9.320;2023-01-30T00:36:06;99455.88;;;-0.25;100.00
23446;BME280;11895;48.738;9.320;2023-01-30T00:38:34;99451.50;;;-0.23;100.00
23446;BME280;11895;48.738;9.320;2023-01-30T00:41:02;99450.56;;;-0.27;100.00
23446;BME280;11895;48.738;9.320;2023-01-30T00:43:30;99447.03;;;-0.26;100.00
23446;BME280;11895;48.738;9.320;2023-01-30T00:49:15;99442.53;;;-0.43;100.00
23446;BME280;11895;48.738;9.320;2023-01-30T00:51:43;99439.00;;;-0.41;100.00
23446;BME280;11895;48.738;9.320;2023-01-30T00:54:13;99439.06;;;-0.32;100.00
23446;BME280;11895;48.738;9.320;2023-01-30T00:56:41;99430.25;;;-0.29;100.00
23446;BME280;11895;48.738;9.320;2023-01-30T00:59:08;99445.09;;;-0.51;100.00
23446;BME280;11895;48.738;9.320;2023-01-30T01:01:37;99456.59;;;-0.47;100.00
23446;BME280;11895;48.738;9.320;2023-01-30T01:04:05;99461.06;;;-0.43;100.00
23446;BME280;11895;48.738;9.320;2023-01-30T01:06:38;99470.81;;;-0.38;100.00
23446;BME280;11895;48.738;9.320;2023-01-30T01:09:06;99475.25;;;-0.34;100.00
23446;BME280;11895;48.738;9.320;2023-01-30T01:11:34;99477.91;;;-0.29;100.00
23446;BME280;11895;48.738;9.320;2023-01-30T01:14:03;99482.34;;;-0.27;100.00
23446;BME280;11895;48.738;9.320;2023-01-30T01:16:33;99497.31;;;-0.30;100.00
23446;BME280;11895;48.738;9.320;2023-01-30T01:19:02;99497.38;;;-0.24;100.00
23446;BME280;11895;48.738;9.320;2023-01-30T01:21:30;99508.84;;;-0.23;100.00
23446;BME280;11895;48.738;9.320;2023-01-30T01:23:58;99510.63;;;-0.19;100.00
23446;BME280;11895;48.738;9.320;2023-01-30T01:26:27;99500.91;;;-0.20;100.00
23446;BME280;11895;48.738;9.320;2023-01-30T01:28:56;99512.38;;;-0.21;100.00
23446;BME280;11895;48.738;9.320;2023-01-30T01:31:24;99521.94;;;-0.39;100.00
23446;BME280;11895;48.738;9.320;2023-01-30T01:33:55;99518.56;;;-0.21;100.00
23446;BME280;11895;48.738;9.320;2023-01-30T01:36:25;99535.41;;;-0.14;100.00
23446;BME280;11895;48.738;9.320;2023-01-30T01:39:12;99529.28;;;-0.09;100.00
23446;BME280;11895;48.738;9.320;2023-01-30T01:41:41;99527.53;;;-0.01;100.00
23446;BME280;11895;48.738;9.320;2023-01-30T01:44:11;99531.06;;;-0.02;100.00
23446;BME280;11895;48.738;9.320;2023-01-30T01:46:52;99530.22;;;0.04;100.00
23446;BME280;11895;48.738;9.320;2023-01-30T01:49:34;99515.25;;;0.09;100.00
23446;BME280;11895;48.738;9.320;2023-01-30T01:52:12;99489.63;;;0.08;100.00
23446;BME280;11895;48.738;9.320;2023-01-30T01:54:52;99503.78;;;0.13;100.00
23446;BME280;11895;48.738;9.320;2023-01-30T01:57:26;99505.56;;;0.11;100.00
23446;BME280;11895;48.738;9.320;2023-01-30T02:00:13;99510.84;;;0.14;100.00
23446;BME280;11895;48.738;9.320;2023-01-30T02:02:56;99519.75;;;0.19;100.00
23446;BME280;11895;48.738;9.320;2023-01-30T02:05:28;99511.81;;;0.19;100.00
23446;BME280;11895;48.738;9.320;2023-01-30T02:10:58;99516.25;;;0.25;100.00
23446;BME280;11895;48.738;9.320;2023-01-30T02:13:31;99522.41;;;0.24;100.00
23446;BME280;11895;48.738;9.320;2023-01-30T02:16:00;99505.63;;;0.23;100.00
23446;BME280;11895;48.738;9.320;2023-01-30T02:18:28;99511.84;;;0.33;100.00
23446;BME280;11895;48.738;9.320;2023-01-30T02:27:19;99504.00;;;0.47;100.00
23446;BME280;11895;48.738;9.320;2023-01-30T02:33:50;99504.84;;;0.41;100.00
23446;BME280;11895;48.738;9.320;2023-01-30T02:36:49;99478.31;;;0.37;100.00
23446;BME280;11895;48.738;9.320;2023-01-30T02:39:31;99476.59;;;0.40;100.00
23446;BME280;11895;48.738;9.320;2023-01-30T02:45:39;99485.34;;;0.27;100.00
23446;BME280;11895;48.738;9.320;2023-01-30T02:48:26;99486.22;;;0.24;100.00
23446;BME280;11895;48.738;9.320;2023-01-30T02:51:11;99477.38;;;0.29;100.00
23446;BME280;11895;48.738;9.320;2023-01-30T02:53:42;99450.88;;;0.22;100.00
23446;BME280;11895;48.738;9.320;2023-01-30T02:56:10;99451.78;;;0.24;100.00
23446;BME280;11895;48.738;9.320;2023-01-30T02:58:52;99452.63;;;0.23;100.00
23446;BME280;11895;48.738;9.320;2023-01-30T03:07:46;99473.81;;;0.17;100.00
23446;BME280;11895;48.738;9.320;2023-01-30T03:15:59;99459.41;;;-0.24;100.00
23446;BME280;11895;48.738;9.320;2023-01-30T03:18:30;99434.78;;;-0.11;100.00
23446;BME280;11895;48.738;9.320;2023-01-30T03:21:05;99426.84;;;-0.10;100.00
23446;BME280;11895;48.738;9.320;2023-01-30T03:23:33;99433.06;;;-0.09;100.00
23446;BME280;11895;48.738;9.320;2023-01-30T03:26:04;99417.16;;;-0.09;100.00
23446;BME280;11895;48.738;9.320;2023-01-30T03:28:35;99415.41;;;-0.07;100.00
23446;BME280;11895;48.738;9.320;2023-01-30T03:31:04;99401.22;;;-0.18;100.00
23446;BME280;11895;48.738;9.320;2023-01-30T03:33:32;99384.50;;;-0.08;100.00
23446;BME280;11895;48.738;9.320;2023-01-30T03:36:00;99349.19;;;-0.09;100.00
23446;BME280;11895;48.738;9.320;2023-01-30T03:38:27;99348.41;;;0.15;100.00
23446;BME280;11895;48.738;9.320;2023-01-30T03:40:55;99345.81;;;0.24;100.00
23446;BME280;11895;48.738;9.320;2023-01-30T03:43:23;99355.56;;;0.47;100.00
23446;BME280;11895;48.738;9.320;2023-01-30T03:45:50;99362.69;;;0.72;100.00
23446;BME280;11895;48.738;9.320;2023-01-30T03:48:18;99360.03;;;0.77;100.00
23446;BME280;11895;48.738;9.320;2023-01-30T03:50:47;99365.38;;;0.83;100.00
23446;BME280;11895;48.738;9.320;2023-01-30T03:53:16;99363.59;;;0.90;100.00
23446;BME280;11895;48.738;9.320;2023-01-30T03:55:44;99355.66;;;0.88;100.00
23446;BME280;11895;48.738;9.320;2023-01-30T03:58:12;99347.69;;;0.97;100.00
23446;BME280;11895;48.738;9.320;2023-01-30T04:00:40;99362.72;;;1.00;100.00
23446;BME280;11895;48.738;9.320;2023-01-30T04:03:07;99351.22;;;0.95;100.00
23446;BME280;11895;48.738;9.320;2023-01-30T04:05:35;99341.50;;;0.88;100.00
23446;BME280;11895;48.738;9.320;2023-01-30T04:08:06;99341.47;;;0.72;100.00
23446;BME280;11895;48.738;9.320;2023-01-30T04:10:34;99341.50;;;0.97;100.00
23446;BME280;11895;48.738;9.320;2023-01-30T04:13:03;99358.31;;;1.17;100.00
23446;BME280;11895;48.738;9.320;2023-01-30T04:15:32;99362.69;;;1.49;100.00
23446;BME280;11895;48.738;9.320;2023-01-30T04:18:25;99364.47;;;1.50;100.00
23446;BME280;11895;48.738;9.320;2023-01-30T04:21:05;99376.81;;;1.72;100.00
23446;BME280;11895;48.738;9.320;2023-01-30T04:23:37;99373.28;;;1.76;100.00
23446;BME280;11895;48.738;9.320;2023-01-30T04:26:06;99373.31;;;1.49;100.00
23446;BME280;11895;48.738;9.320;2023-01-30T04:28:38;99377.69;;;1.73;100.00
23446;BME280;11895;48.738;9.320;2023-01-30T04:31:07;99379.41;;;1.92;100.00
23446;BME280;11895;48.738;9.320;2023-01-30T04:33:41;99369.75;;;1.74;100.00
23446;BME280;11895;48.738;9.320;2023-01-30T04:36:11;99368.81;;;1.88;100.00
23446;BME280;11895;48.738;9.320;2023-01-30T04:38:39;99359.91;;;1.98;100.00
23446;BME280;11895;48.738;9.320;2023-01-30T04:41:07;99360.88;;;1.82;100.00
23446;BME280;11895;48.738;9.320;2023-01-30T04:43:39;99361.69;;;2.00;100.00
23446;BME280;11895;48.738;9.320;2023-01-30T04:46:45;99362.59;;;1.99;100.00
23446;BME280;11895;48.738;9.320;2023-01-30T04:49:14;99359.91;;;2.02;100.00
23446;BME280;11895;48.738;9.320;2023-01-30T04:51:43;99355.53;;;1.94;100.00
23446;BME280;11895;48.738;9.320;2023-01-30T04:54:10;99371.47;;;1.94;100.00
23446;BME280;11895;48.738;9.320;2023-01-30T04:56:39;99375.00;;;1.96;100.00
23446;BME280;11895;48.738;9.320;2023-01-30T04:59:07;99373.19;;;1.98;100.00
23446;BME280;11895;48.738;9.320;2023-01-30T05:01:41;99361.69;;;2.08;100.00
23446;BME280;11895;48.738;9.320;2023-01-30T05:04:09;99353.63;;;2.22;100.00
23446;BME280;11895;48.738;9.320;2023-01-30T05:06:37;99357.28;;;1.87;100.00
23446;BME280;11895;48.738;9.320;2023-01-30T05:09:05;99361.78;;;1.59;100.00
23446;BME280;11895;48.738;9.320;2023-01-30T05:11:33;99343.97;;;2.02;100.00
23446;BME280;11895;48.738;9.320;2023-01-30T05:14:01;99351.81;;;2.31;100.00
23446;BME280;11895;48.738;9.320;2023-01-30T05:16:29;99345.56;;;2.43;100.00
23446;BME280;11895;48.738;9.320;2023-01-30T05:18:57;99346.69;;;1.86;100.00
23446;BME280;11895;48.738;9.320;2023-01-30T05:21:26;99336.06;;;1.89;100.00
23446;BME280;11895;48.738;9.320;2023-01-30T05:23:56;99325.50;;;1.70;100.00
23446;BME280;11895;48.738;9.320;2023-01-30T05:26:24;99323.69;;;1.78;100.00
23446;BME280;11895;48.738;9.320;2023-01-30T05:28:56;99324.50;;;1.96;100.00
23446;BME280;11895;48.738;9.320;2023-01-30T05:31:24;99314.78;;;1.90;100.00
23446;BME280;11895;48.738;9.320;2023-01-30T05:33:52;99320.09;;;1.92;100.00
23446;BME280;11895;48.738;9.320;2023-01-30T05:36:21;99316.50;;;2.10;100.00
23446;BME280;11895;48.738;9.320;2023-01-30T05:38:49;99302.28;;;2.12;100.00
23446;BME280;11895;48.738;9.320;2023-01-30T05:41:17;99306.63;;;2.31;100.00
23446;BME280;11895;48.738;9.320;2023-01-30T05:43:49;99303.00;;;2.45;100.00
23446;BME280;11895;48.738;9.320;2023-01-30T05:46:20;99280.78;;;2.55;100.00
23446;BME280;11895;48.738;9.320;2023-01-30T05:48:47;99285.31;;;2.39;100.00
23446;BME280;11895;48.738;9.320;2023-01-30T05:51:17;99288.66;;;2.72;100.00
23446;BME280;11895;48.738;9.320;2023-01-30T05:53:46;99285.88;;;2.84;100.00
23446;BME280;11895;48.738;9.320;2023-01-30T05:56:15;99289.41;;;2.88;100.00
23446;BME280;11895;48.738;9.320;2023-01-30T05:58:53;99288.63;;;2.76;100.00
23446;BME280;11895;48.738;9.320;2023-01-30T06:01:22;99294.84;;;2.72;100.00
23446;BME280;11895;48.738;9.320;2023-01-30T06:03:50;99294.72;;;2.91;100.00
23446;BME280;11895;48.738;9.320;2023-01-30T06:06:19;99296.78;;;2.49;100.00
23446;BME280;11895;48.738;9.320;2023-01-30T06:08:53;99289.78;;;2.33;100.00
23446;BME280;11895;48.738;9.320;2023-01-30T06:11:22;99293.09;;;2.65;100.00
23446;BME280;11895;48.738;9.320;2023-01-30T06:13:50;99292.25;;;2.66;100.00
23446;BME280;11895;48.738;9.320;2023-01-30T06:16:18;99297.34;;;2.95;100.00
23446;BME280;11895;48.738;9.320;2023-01-30T06:18:46;99291.91;;;3.04;100.00
23446;BME280;11895;48.738;9.320;2023-01-30T06:21:15;99297.94;;;3.23;100.00
23446;BME280;11895;48.738;9.320;2023-01-30T06:23:43;99289.38;;;2.91;100.00
23446;BME280;11895;48.738;9.320;2023-01-30T06:26:10;99288.19;;;3.24;100.00
23446;BME280;11895;48.738;9.320;2023-01-30T06:28:38;99279.19;;;3.37;100.00
23446;BME280;11895;48.738;9.320;2023-01-30T06:31:07;99279.97;;;3.47;100.00
23446;BME280;11895;48.738;9.320;2023-01-30T06:33:35;99279.19;;;3.37;100.00
23446;BME280;11895;48.738;9.320;2023-01-30T06:36:03;99271.41;;;3.17;100.00
23446;BME280;11895;48.738;9.320;2023-01-30T06:38:32;99282.88;;;3.22;100.00
23446;BME280;11895;48.738;9.320;2023-01-30T06:40:59;99267.03;;;3.10;100.00
23446;BME280;11895;48.738;9.320;2023-01-30T06:43:28;99260.75;;;3.17;100.00
23446;BME280;11895;48.738;9.320;2023-01-30T06:45:58;99267.47;;;2.58;100.00
23446;BME280;11895;48.738;9.320;2023-01-30T06:48:27;99263.84;;;2.68;100.00
23446;BME280;11895;48.738;9.320;2023-01-30T06:50:55;99260.25;;;2.74;100.00
23446;BME280;11895;48.738;9.320;2023-01-30T06:53:23;99261.06;;;2.83;100.00
23446;BME280;11895;48.738;9.320;2023-01-30T06:55:58;99266.22;;;2.99;100.00
23446;BME280;11895;48.738;9.320;2023-01-30T06:58:34;99264.56;;;2.89;100.00
23446;BME280;11895;48.738;9.320;2023-01-30T07:01:02;99255.72;;;2.83;100.00
23446;BME280;11895;48.738;9.320;2023-01-30T07:03:30;99264.41;;;3.07;100.00
23446;BME280;11895;48.738;9.320;2023-01-30T07:06:00;99253.09;;;2.79;100.00
23446;BME280;11895;48.738;9.320;2023-01-30T07:08:28;99263.63;;;2.93;100.00
23446;BME280;11895;48.738;9.320;2023-01-30T07:10:55;99270.75;;;2.89;100.00
23446;BME280;11895;48.738;9.320;2023-01-30T07:13:23;99288.38;;;3.02;100.00
23446;BME280;11895;48.738;9.320;2023-01-30T07:15:51;99294.41;;;3.26;100.00
23446;BME280;11895;48.738;9.320;2023-01-30T07:18:18;99290.88;;;3.22;100.00
23446;BME280;11895;48.738;9.320;2023-01-30T07:20:47;99287.34;;;3.20;100.00
23446;BME280;11895;48.738;9.320;2023-01-30T07:23:16;99289.72;;;3.49;100.00
23446;BME280;11895;48.738;9.320;2023-01-30T07:25:47;99294.91;;;3.61;100.00
23446;BME280;11895;48.738;9.320;2023-01-30T07:28:14;99302.75;;;3.75;100.00
23446;BME280;11895;48.738;9.320;2023-01-30T07:30:42;99308.00;;;3.81;100.00
23446;BME280;11895;48.738;9.320;2023-01-30T07:33:13;99299.97;;;3.84;100.00
23446;BME280;11895;48.738;9.320;2023-01-30T07:35:40;99297.25;;;3.92;100.00
23446;BME280;11895;48.738;9.320;2023-01-30T07:38:08;99302.53;;;3.94;100.00
23446;BME280;11895;48.738;9.320;2023-01-30T07:40:35;99294.50;;;3.98;100.00
23446;BME280;11895;48.738;9.320;2023-01-30T07:43:10;99316.72;;;3.96;100.00
23446;BME280;11895;48.738;9.320;2023-01-30T07:45:44;99311.66;;;3.71;100.00
23446;BME280;11895;48.738;9.320;2023-01-30T07:48:15;99311.97;;;3.44;100.00
23446;BME280;11895;48.738;9.320;2023-01-30T07:50:45;99315.31;;;3.64;100.00
23446;BME280;11895;48.738;9.320;2023-01-30T07:53:15;99320.91;;;3.37;100.00
23446;BME280;11895;48.738;9.320;2023-01-30T07:55:48;99325.38;;;3.33;100.00
23446;BME280;11895;48.738;9.320;2023-01-30T07:58:16;99315.66;;;3.30;100.00
23446;BME280;11895;48.738;9.320;2023-01-30T08:00:44;99297.81;;;3.39;100.00
23446;BME280;11895;48.738;9.320;2023-01-30T08:03:15;99290.94;;;3.16;100.00
23446;BME280;11895;48.738;9.320;2023-01-30T08:05:46;99281.00;;;3.35;100.00
23446;BME280;11895;48.738;9.320;2023-01-30T08:08:14;99289.72;;;3.48;100.00
23446;BME280;11895;48.738;9.320;2023-01-30T08:10:42;99283.34;;;3.64;100.00
23446;BME280;11895;48.738;9.320;2023-01-30T08:13:15;99283.38;;;3.61;100.00
23446;BME280;11895;48.738;9.320;2023-01-30T08:15:43;99298.31;;;3.74;100.00
23446;BME280;11895;48.738;9.320;2023-01-30T08:18:11;99296.41;;;3.85;100.00
23446;BME280;11895;48.738;9.320;2023-01-30T08:20:38;99320.47;;;3.79;100.00
23446;BME280;11895;48.738;9.320;2023-01-30T08:23:06;99326.88;;;3.61;100.00
23446;BME280;11895;48.738;9.320;2023-01-30T08:25:34;99323.97;;;3.84;100.00
23446;BME280;11895;48.738;9.320;2023-01-30T08:28:02;99310.00;;;3.61;100.00
23446;BME280;11895;48.738;9.320;2023-01-30T08:30:31;99301.72;;;3.89;100.00
23446;BME280;11895;48.738;9.320;2023-01-30T08:32:58;99311.53;;;3.82;100.00
23446;BME280;11895;48.738;9.320;2023-01-30T08:35:26;99311.53;;;3.83;100.00
23446;BME280;11895;48.738;9.320;2023-01-30T08:37:54;99299.75;;;3.24;100.00
23446;BME280;11895;48.738;9.320;2023-01-30T08:40:22;99290.44;;;3.65;100.00
23446;BME280;11895;48.738;9.320;2023-01-30T08:42:49;99279.75;;;3.68;100.00
23446;BME280;11895;48.738;9.320;2023-01-30T08:45:17;99275.97;;;3.88;100.00
23446;BME280;11895;48.738;9.320;2023-01-30T08:47:45;99277.38;;;4.16;100.00
23446;BME280;11895;48.738;9.320;2023-01-30T08:50:12;99280.88;;;4.20;100.00
23446;BME280;11895;48.738;9.320;2023-01-30T08:52:40;99268.22;;;4.34;100.00
23446;BME280;11895;48.738;9.320;2023-01-30T08:55:08;99266.53;;;4.28;100.00
23446;BME280;11895;48.738;9.320;2023-01-30T08:57:36;99250.97;;;4.58;100.00
23446;BME280;11895;48.738;9.320;2023-01-30T09:00:04;99240.13;;;4.70;100.00
23446;BME280;11895;48.738;9.320;2023-01-30T09:02:32;99238.22;;;4.77;100.00
23446;BME280;11895;48.738;9.320;2023-01-30T09:05:00;99228.72;;;5.11;100.00
23446;BME280;11895;48.738;9.320;2023-01-30T09:07:28;99239.09;;;5.30;100.00
23446;BME280;11895;48.738;9.320;2023-01-30T09:09:55;99216.34;;;5.54;100.00
23446;BME280;11895;48.738;9.320;2023-01-30T09:12:23;99201.31;;;5.02;100.00
23446;BME280;11895;48.738;9.320;2023-01-30T09:14:51;99203.31;;;5.38;100.00
23446;BME280;11895;48.738;9.320;2023-01-30T09:17:25;99221.56;;;5.61;100.00
23446;BME280;11895;48.738;9.320;2023-01-30T09:19:53;99218.88;;;5.15;100.00
23446;BME280;11895;48.738;9.320;2023-01-30T09:22:21;99214.16;;;5.29;100.00
23446;BME280;11895;48.738;9.320;2023-01-30T09:24:48;99201.53;;;5.82;100.00
23446;BME280;11895;48.738;9.320;2023-01-30T09:27:16;99205.44;;;5.66;100.00
23446;BME280;11895;48.738;9.320;2023-01-30T09:29:44;99229.53;;;6.08;100.00
23446;BME280;11895;48.738;9.320;2023-01-30T09:32:12;99207.16;;;6.51;100.00
23446;BME280;11895;48.738;9.320;2023-01-30T09:34:40;99196.22;;;6.60;100.00
23446;BME280;11895;48.738;9.320;2023-01-30T09:37:07;99213.28;;;6.17;100.00
23446;BME280;11895;48.738;9.320;2023-01-30T09:40:00;99218.84;;;6.47;100.00
23446;BME280;11895;48.738;9.320;2023-01-30T09:42:44;99212.81;;;6.38;100.00
23446;BME280;11895;48.738;9.320;2023-01-30T09:45:31;99212.66;;;6.44;100.00
23446;BME280;11895;48.738;9.320;2023-01-30T09:56:39;99202.63;;;5.72;100.00
23446;BME280;11895;48.738;9.320;2023-01-30T09:59:18;99199.41;;;5.56;100.00
23446;BME280;11895;48.738;9.320;2023-01-30T10:04:41;99176.19;;;6.02;100.00
23446;BME280;11895;48.738;9.320;2023-01-30T10:13:32;99165.56;;;6.73;100.00
23446;BME280;11895;48.738;9.320;2023-01-30T10:19:24;99144.38;;;6.64;100.00
23446;BME280;11895;48.738;9.320;2023-01-30T10:26:00;99146.16;;;6.28;100.00
23446;BME280;11895;48.738;9.320;2023-01-30T10:28:14;99134.47;;;5.93;100.00
23446;BME280;11895;48.738;9.320;2023-01-30T10:30:51;99141.06;;;5.75;100.00
23446;BME280;11895;48.738;9.320;2023-01-30T10:33:34;99134.28;;;6.39;100.00
23446;BME280;11895;48.738;9.320;2023-01-30T10:36:11;99132.16;;;6.16;100.00
23446;BME280;11895;48.738;9.320;2023-01-30T10:38:51;99126.38;;;6.33;100.00
23446;BME280;11895;48.738;9.320;2023-01-30T10:41:39;99125.03;;;6.53;100.00
23446;BME280;11895;48.738;9.320;2023-01-30T10:44:22;99126.00;;;6.84;100.00
23446;BME280;11895;48.738;9.320;2023-01-30T10:46:57;99118.47;;;6.64;100.00
23446;BME280;11895;48.738;9.320;2023-01-30T10:49:40;99109.81;;;6.19;100.00
23446;BME280;11895;48.738;9.320;2023-01-30T10:57:53;99110.44;;;6.30;100.00
23446;BME280;11895;48.738;9.320;2023-01-30T11:03:37;99121.72;;;6.41;100.00
23446;BME280;11895;48.738;9.320;2023-01-30T11:06:14;99115.91;;;6.60;100.00
23446;BME280;11895;48.738;9.320;2023-01-30T11:08:46;99110.97;;;6.44;100.00
23446;BME280;11895;48.738;9.320;2023-01-30T11:11:53;99117.41;;;6.00;100.00
23446;BME280;11895;48.738;9.320;2023-01-30T11:17:35;99124.44;;;6.03;100.00
23446;BME280;11895;48.738;9.320;2023-01-30T11:22:46;99104.88;;;6.38;100.00
23446;BME280;11895;48.738;9.320;2023-01-30T11:25:21;99141.56;;;5.94;100.00
23446;BME280;11895;48.738;9.320;2023-01-30T11:28:00;99117.69;;;5.86;100.00
23446;BME280;11895;48.738;9.320;2023-01-30T11:30:33;99116.25;;;5.70;100.00
23446;BME280;11895;48.738;9.320;2023-01-30T11:33:15;99104.63;;;5.73;100.00
23446;BME280;11895;48.738;9.320;2023-01-30T11:38:25;99105.13;;;5.91;100.00
23446;BME280;11895;48.738;9.320;2023-01-30T11:41:18;99110.91;;;5.70;100.00
23446;BME280;11895;48.738;9.320;2023-01-30T11:43:48;99113.91;;;5.97;100.00
23446;BME280;11895;48.738;9.320;2023-01-30T11:46:17;99119.56;;;5.81;100.00
23446;BME280;11895;48.738;9.320;2023-01-30T11:48:55;99133.00;;;5.78;100.00
23446;BME280;11895;48.738;9.320;2023-01-30T11:51:47;99131.97;;;5.85;100.00
23446;BME280;11895;48.738;9.320;2023-01-30T11:54:26;99135.00;;;6.09;100.00
23446;BME280;11895;48.738;9.320;2023-01-30T11:57:02;99132.97;;;6.20;100.00
23446;BME280;11895;48.738;9.320;2023-01-30T11:59:39;99131.22;;;6.19;100.00
23446;BME280;11895;48.738;9.320;2023-01-30T12:02:23;99118.38;;;5.96;100.00
23446;BME280;11895;48.738;9.320;2023-01-30T12:05:01;99133.44;;;5.99;100.00
23446;BME280;11895;48.738;9.320;2023-01-30T12:07:50;99114.34;;;5.75;100.00
23446;BME280;11895;48.738;9.320;2023-01-30T12:10:30;99109.47;;;5.96;100.00
23446;BME280;11895;48.738;9.320;2023-01-30T12:13:01;99118.06;;;5.68;100.00
23446;BME280;11895;48.738;9.320;2023-01-30T12:15:37;99113.25;;;5.44;100.00
23446;BME280;11895;48.738;9.320;2023-01-30T12:18:22;99099.97;;;5.40;100.00
23446;BME280;11895;48.738;9.320;2023-01-30T12:23:51;99107.13;;;5.38;100.00
23446;BME280;11895;48.738;9.320;2023-01-30T12:26:34;99110.38;;;5.11;100.00
23446;BME280;11895;48.738;9.320;2023-01-30T12:29:25;99115.84;;;5.05;100.00
23446;BME280;11895;48.738;9.320;2023-01-30T12:32:17;99100.47;;;5.18;100.00
23446;BME280;11895;48.738;9.320;2023-01-30T12:34:46;99101.44;;;5.12;100.00
23446;BME280;11895;48.738;9.320;2023-01-30T12:37:22;99108.34;;;5.24;100.00
23446;BME280;11895;48.738;9.320;2023-01-30T12:42:58;99112.63;;;5.32;100.00
23446;BME280;11895;48.738;9.320;2023-01-30T12:46:29;99117.22;;;5.24;100.00
23446;BME280;11895;48.738;9.320;2023-01-30T13:07:07;99150.34;;;4.12;100.00
23446;BME280;11895;48.738;9.320;2023-01-30T13:09:48;99168.22;;;4.05;100.00
23446;BME280;11895;48.738;9.320;2023-01-30T13:12:45;99152.16;;;4.11;100.00
23446;BME280;11895;48.738;9.320;2023-01-30T13:15:31;99156.16;;;4.38;100.00
23446;BME280;11895;48.738;9.320;2023-01-30T13:18:13;99155.84;;;4.57;100.00
23446;BME280;11895;48.738;9.320;2023-01-30T13:23:33;99150.19;;;4.75;100.00
23446;BME280;11895;48.738;9.320;2023-01-30T13:26:20;99146.88;;;4.61;100.00
23446;BME280;11895;48.738;9.320;2023-01-30T13:28:56;99151.91;;;4.79;100.00
23446;BME280;11895;48.738;9.320;2023-01-30T13:31:29;99159.19;;;4.68;100.00
23446;BME280;11895;48.738;9.320;2023-01-30T13:34:32;99166.47;;;4.60;100.00
23446;BME280;11895;48.738;9.320;2023-01-30T13:37:13;99168.16;;;4.64;100.00
23446;BME280;11895;48.738;9.320;2023-01-30T13:39:54;99175.28;;;4.65;100.00
23446;BME280;11895;48.738;9.320;2023-01-30T13:45:27;99172.78;;;4.56;100.00
23446;BME280;11895;48.738;9.320;2023-01-30T13:57:19;99189.03;;;4.92;100.00
23446;BME280;11895;48.738;9.320;2023-01-30T14:08:21;99210.41;;;4.92;100.00
23446;BME280;11895;48.738;9.320;2023-01-30T14:10:52;99206.59;;;5.05;100.00
23446;BME280;11895;48.738;9.320;2023-01-30T14:13:26;99204.84;;;5.04;100.00
23446;BME280;11895;48.738;9.320;2023-01-30T14:16:05;99211.06;;;5.04;100.00
23446;BME280;11895;48.738;9.320;2023-01-30T14:18:36;99228.31;;;4.83;100.00
23446;BME280;11895;48.738;9.320;2023-01-30T14:21:22;99211.06;;;4.52;100.00
23446;BME280;11895;48.738;9.320;2023-01-30T14:45:55;99227.06;;;4.52;100.00
23446;BME280;11895;48.738;9.320;2023-01-30T14:51:47;99254.97;;;4.86;100.00
23446;BME280;11895;48.738;9.320;2023-01-30T15:07:48;99261.91;;;4.97;100.00
23446;BME280;11895;48.738;9.320;2023-01-30T15:22:51;99272.72;;;7.07;100.00
23446;BME280;11895;48.738;9.320;2023-01-30T15:25:42;99272.56;;;6.76;100.00
23446;BME280;11895;48.738;9.320;2023-01-30T15:31:36;99282.66;;;7.01;100.00
23446;BME280;11895;48.738;9.320;2023-01-30T15:34:14;99292.06;;;7.18;100.00
23446;BME280;11895;48.738;9.320;2023-01-30T15:36:46;99288.56;;;7.15;100.00
23446;BME280;11895;48.738;9.320;2023-01-30T15:39:25;99294.75;;;7.85;100.00
23446;BME280;11895;48.738;9.320;2023-01-30T15:42:05;99300.59;;;7.99;100.00
23446;BME280;11895;48.738;9.320;2023-01-30T15:44:37;99300.28;;;7.79;100.00
23446;BME280;11895;48.738;9.320;2023-01-30T15:50:20;99299.09;;;7.57;100.00
23446;BME280;11895;48.738;9.320;2023-01-30T15:52:52;99298.34;;;7.52;100.00
23446;BME280;11895;48.738;9.320;2023-01-30T15:55:31;99298.53;;;7.45;100.00
23446;BME280;11895;48.738;9.320;2023-01-30T15:58:13;99283.53;;;7.03;100.00
23446;BME280;11895;48.738;9.320;2023-01-30T16:00:50;99299.00;;;6.90;100.00
23446;BME280;11895;48.738;9.320;2023-01-30T16:03:32;99303.97;;;6.69;100.00
23446;BME280;11895;48.738;9.320;2023-01-30T16:06:03;99310.13;;;6.73;100.00
23446;BME280;11895;48.738;9.320;2023-01-30T16:08:34;99307.97;;;6.50;100.00
23446;BME280;11895;48.738;9.320;2023-01-30T16:11:02;99310.59;;;6.52;100.00
23446;BME280;11895;48.738;9.320;2023-01-30T16:13:30;99316.88;;;6.51;100.00
23446;BME280;11895;48.738;9.320;2023-01-30T16:16:03;99304.13;;;6.62;100.00
23446;BME280;11895;48.738;9.320;2023-01-30T16:18:48;99315.69;;;6.64;100.00
23446;BME280;11895;48.738;9.320;2023-01-30T16:21:27;99324.56;;;6.66;100.00
23446;BME280;11895;48.738;9.320;2023-01-30T16:26:55;99323.53;;;6.73;100.00
23446;BME280;11895;48.738;9.320;2023-01-30T16:29:42;99321.66;;;6.75;100.00